Terminal Aerodrome Forecast
Issued by NWS Grand Forks, ND

Home | Current Version | Previous Version | Graphics & Text | Print | Product List | Glossary On
Versions: 1 2 3 4 5 6 7 8 9 10 11 12
000
FTUS43 KFGF 242300
TAFGFK
TAF
KGFK 242333Z 2500/2524 19010KT P6SM OVC007
      TEMPO 2500/2502 4SM -SN
     FM250700 30008KT 3SM BR OVC004
     FM251800 34010KT P6SM OVC015=

USA.gov is the U.S. government's official web portal to all federal, state and local government web resources and services.